createdAt,value
2018-01-29T00:02:09.412Z,8.40
2018-01-29T00:04:36.857Z,8.40
2018-01-29T00:07:05.097Z,8.30
2018-01-29T00:09:32.542Z,8.30
2018-01-29T00:11:59.992Z,8.30
2018-01-29T00:14:28.208Z,8.30
2018-01-29T00:16:56.420Z,8.30
2018-01-29T00:19:23.878Z,8.20
2018-01-29T00:21:51.323Z,8.20
2018-01-29T00:24:18.779Z,8.10
2018-01-29T00:26:46.221Z,8.10
2018-01-29T00:29:14.440Z,8.00
2018-01-29T00:31:41.876Z,8.00
2018-01-29T00:34:09.336Z,8.00
2018-01-29T00:36:36.796Z,8.00
2018-01-29T00:39:04.236Z,8.00
2018-01-29T00:41:31.688Z,8.00
2018-01-29T00:43:59.161Z,8.00
2018-01-29T00:46:26.618Z,8.10
2018-01-29T00:48:54.056Z,8.10
2018-01-29T00:51:21.513Z,8.10
2018-01-29T00:53:48.960Z,8.10
2018-01-29T00:56:17.173Z,8.10
2018-01-29T00:58:44.621Z,8.10
2018-01-29T01:01:12.073Z,8.10
2018-01-29T01:03:39.520Z,8.10
2018-01-29T01:06:06.968Z,8.10
2018-01-29T01:08:34.417Z,8.10
2018-01-29T01:11:02.633Z,8.00
2018-01-29T01:13:30.073Z,8.00
2018-01-29T01:15:57.529Z,8.00
2018-01-29T01:18:24.973Z,7.90
2018-01-29T01:20:52.429Z,7.90
2018-01-29T01:23:19.881Z,7.90
2018-01-29T01:25:47.332Z,7.90
2018-01-29T01:28:14.792Z,7.80
2018-01-29T01:30:43.009Z,7.80
2018-01-29T01:33:10.456Z,7.80
2018-01-29T01:35:37.912Z,7.70
2018-01-29T01:38:05.365Z,7.70
2018-01-29T01:40:32.812Z,7.70
2018-01-29T01:43:00.256Z,7.70
2018-01-29T01:45:27.711Z,7.70
2018-01-29T01:47:55.166Z,7.80
2018-01-29T01:50:22.610Z,7.70
2018-01-29T01:52:50.822Z,7.70
2018-01-29T01:55:18.272Z,7.70
2018-01-29T01:57:45.722Z,7.70
2018-01-29T02:00:13.160Z,7.70
2018-01-29T02:02:40.612Z,7.70
2018-01-29T02:05:08.829Z,7.60
2018-01-29T02:07:36.284Z,7.60
2018-01-29T02:10:03.729Z,7.60
2018-01-29T02:12:31.181Z,7.60
2018-01-29T02:14:58.624Z,7.60
2018-01-29T02:17:26.078Z,7.60
2018-01-29T02:19:53.520Z,7.60
2018-01-29T02:22:21.756Z,7.70
2018-01-29T02:24:49.202Z,7.60
2018-01-29T02:27:17.421Z,7.70
2018-01-29T02:29:45.628Z,7.70
2018-01-29T02:32:13.106Z,7.70
2018-01-29T02:34:40.546Z,7.70
2018-01-29T02:37:07.999Z,7.70
2018-01-29T02:39:35.448Z,7.70
2018-01-29T02:42:02.913Z,7.70
2018-01-29T02:44:30.367Z,7.60
2018-01-29T02:46:57.812Z,7.70
2018-01-29T02:49:25.261Z,7.70
2018-01-29T02:51:52.716Z,7.70
2018-01-29T02:54:20.932Z,7.70
2018-01-29T02:56:48.385Z,7.60
2018-01-29T02:59:15.833Z,7.70
2018-01-29T03:01:43.287Z,7.70
2018-01-29T03:04:10.733Z,7.70
2018-01-29T03:06:38.198Z,7.70
2018-01-29T03:09:05.632Z,7.70
2018-01-29T03:11:33.076Z,7.80
2018-01-29T03:14:01.297Z,7.70
2018-01-29T03:16:28.744Z,7.70
2018-01-29T03:18:56.201Z,7.80
2018-01-29T03:21:23.641Z,7.70
2018-01-29T03:23:51.119Z,7.80
2018-01-29T03:26:18.564Z,7.80
2018-01-29T03:28:46.012Z,7.80
2018-01-29T03:31:13.460Z,7.80
2018-01-29T03:33:40.905Z,7.80
2018-01-29T03:36:09.117Z,7.90
2018-01-29T03:38:36.568Z,7.90
2018-01-29T03:41:04.021Z,7.80
2018-01-29T03:43:31.479Z,7.90
2018-01-29T03:45:58.934Z,7.90
2018-01-29T03:48:26.381Z,7.80
2018-01-29T03:50:53.833Z,7.80
2018-01-29T03:53:21.281Z,7.80
2018-01-29T03:55:48.734Z,7.80
2018-01-29T03:58:16.956Z,7.80
2018-01-29T04:00:44.424Z,7.80
2018-01-29T04:03:11.865Z,7.90
2018-01-29T04:05:39.317Z,7.90
2018-01-29T04:08:06.768Z,7.90
2018-01-29T04:10:34.216Z,7.90
2018-01-29T04:13:01.676Z,7.90
2018-01-29T04:15:29.130Z,7.80
2018-01-29T04:17:56.572Z,7.90
2018-01-29T04:20:24.024Z,7.90
2018-01-29T04:22:51.473Z,7.90
2018-01-29T04:25:19.691Z,7.90
2018-01-29T04:27:47.137Z,7.90
2018-01-29T04:30:14.604Z,7.90
2018-01-29T04:32:42.045Z,7.90
2018-01-29T04:35:09.504Z,8.00
2018-01-29T04:37:36.959Z,8.00
2018-01-29T04:40:04.416Z,8.00
2018-01-29T04:42:31.869Z,8.00
2018-01-29T04:44:59.324Z,8.00
2018-01-29T04:47:26.772Z,8.00
2018-01-29T04:49:54.234Z,8.00
2018-01-29T04:52:21.673Z,8.00
2018-01-29T04:54:49.137Z,8.00
2018-01-29T04:57:16.577Z,8.10
2018-01-29T04:59:44.806Z,8.00
2018-01-29T05:02:12.258Z,8.00
2018-01-29T05:04:39.718Z,8.00
2018-01-29T05:07:07.172Z,8.00
2018-01-29T05:09:34.817Z,8.00
2018-01-29T05:12:02.270Z,8.10
2018-01-29T05:14:29.726Z,8.10
2018-01-29T05:16:57.164Z,8.00
2018-01-29T05:19:24.620Z,8.10
2018-01-29T05:21:52.233Z,8.10
2018-01-29T05:24:19.681Z,8.10
2018-01-29T05:26:47.130Z,8.10
2018-01-29T05:29:14.588Z,8.10
2018-01-29T05:31:42.037Z,8.10
2018-01-29T05:34:09.480Z,8.10
2018-01-29T05:39:35.517Z,8.10
2018-01-29T05:42:02.958Z,8.10
2018-01-29T05:44:30.434Z,8.10
2018-01-29T05:46:57.951Z,8.10
2018-01-29T05:49:26.173Z,8.20
2018-01-29T05:51:53.624Z,8.20
2018-01-29T05:54:21.079Z,8.20
2018-01-29T05:56:48.537Z,8.20
2018-01-29T05:59:16.001Z,8.20
2018-01-29T06:01:43.461Z,8.20
2018-01-29T06:04:10.905Z,8.20
2018-01-29T06:06:38.365Z,8.20
2018-01-29T06:09:05.816Z,8.20
2018-01-29T06:11:33.481Z,8.20
2018-01-29T06:14:00.908Z,8.20
2018-01-29T06:16:29.129Z,8.20
2018-01-29T06:18:56.572Z,8.20
2018-01-29T06:21:24.025Z,8.30
2018-01-29T06:23:51.481Z,8.30
2018-01-29T06:26:18.936Z,8.30
2018-01-29T06:28:46.380Z,8.30
2018-01-29T06:31:13.833Z,8.30
2018-01-29T06:33:41.289Z,8.30
2018-01-29T06:36:08.769Z,8.30
2018-01-29T06:38:36.218Z,8.40
2018-01-29T06:41:03.677Z,8.30
2018-01-29T06:43:31.129Z,8.40
2018-01-29T06:45:58.577Z,8.40
2018-01-29T06:48:26.120Z,8.40
2018-01-29T06:50:54.330Z,8.40
2018-01-29T06:53:21.772Z,8.40
2018-01-29T06:55:49.228Z,8.50
2018-01-29T06:58:16.689Z,8.40
2018-01-29T07:00:44.249Z,8.40
2018-01-29T07:03:11.690Z,8.40
2018-01-29T07:05:39.137Z,8.40
2018-01-29T07:08:07.353Z,8.40
2018-01-29T07:10:34.804Z,8.40
2018-01-29T07:13:02.283Z,8.50
2018-01-29T07:15:29.741Z,8.50
2018-01-29T07:17:57.177Z,8.50
2018-01-29T07:20:24.624Z,8.50
2018-01-29T07:22:52.076Z,8.50
2018-01-29T07:25:19.549Z,8.50
2018-01-29T07:27:46.986Z,8.50
2018-01-29T07:30:14.452Z,8.60
2018-01-29T07:32:41.908Z,8.50
2018-01-29T07:35:09.347Z,8.60
2018-01-29T07:37:36.808Z,8.60
2018-01-29T07:40:04.253Z,8.60
2018-01-29T07:42:31.718Z,8.60
2018-01-29T07:44:59.165Z,8.60
2018-01-29T07:47:26.622Z,8.60
2018-01-29T07:49:54.074Z,8.60
2018-01-29T07:52:22.314Z,8.70
2018-01-29T07:54:49.763Z,8.70
2018-01-29T07:57:17.259Z,8.70
2018-01-29T07:59:45.475Z,8.70
2018-01-29T08:02:13.062Z,8.70
2018-01-29T08:04:40.514Z,8.80
2018-01-29T08:07:07.985Z,8.80
2018-01-29T08:09:35.442Z,8.80
2018-01-29T08:12:02.890Z,8.80
2018-01-29T08:14:30.463Z,8.90
2018-01-29T08:16:57.943Z,8.90
2018-01-29T08:19:25.430Z,8.90
2018-01-29T08:21:52.890Z,8.90
2018-01-29T08:24:20.341Z,8.90
2018-01-29T08:26:47.803Z,9.00
2018-01-29T08:29:15.254Z,9.00
2018-01-29T08:31:42.709Z,9.00
2018-01-29T08:34:10.170Z,9.00
2018-01-29T08:36:37.622Z,9.00
2018-01-29T08:39:05.081Z,9.10
2018-01-29T08:41:32.532Z,9.10
2018-01-29T08:44:00.040Z,9.10
2018-01-29T08:46:27.485Z,9.20
2018-01-29T08:48:54.946Z,9.20
2018-01-29T08:51:22.399Z,9.20
2018-01-29T08:53:49.863Z,9.20
2018-01-29T08:56:17.438Z,9.30
2018-01-29T08:58:45.665Z,9.30
2018-01-29T09:01:13.118Z,9.30
2018-01-29T09:03:40.577Z,9.30
2018-01-29T09:06:08.025Z,9.40
2018-01-29T09:08:35.486Z,9.40
2018-01-29T09:11:02.934Z,9.40
2018-01-29T09:13:30.393Z,9.40
2018-01-29T09:15:57.846Z,9.50
2018-01-29T09:18:25.301Z,9.50
2018-01-29T09:20:52.882Z,9.60
2018-01-29T09:23:20.342Z,9.60
2018-01-29T09:25:47.795Z,9.60
2018-01-29T09:28:15.250Z,9.60
2018-01-29T09:30:43.474Z,9.70
2018-01-29T09:33:11.691Z,9.70
2018-01-29T09:35:39.154Z,9.70
2018-01-29T09:38:06.607Z,9.80
2018-01-29T09:40:34.078Z,9.80
2018-01-29T09:43:01.533Z,9.80
2018-01-29T09:45:29.003Z,9.90
2018-01-29T09:47:56.462Z,10.00
2018-01-29T09:50:23.927Z,10.00
2018-01-29T09:52:51.382Z,10.00
2018-01-29T09:55:18.850Z,10.10
2018-01-29T09:57:47.126Z,10.20
2018-01-29T10:00:14.582Z,10.10
2018-01-29T10:02:42.811Z,10.30
2018-01-29T10:05:10.291Z,10.20
2018-01-29T10:07:37.733Z,10.30
2018-01-29T10:10:05.189Z,10.30
2018-01-29T10:12:32.694Z,10.30
2018-01-29T10:15:00.106Z,10.40
2018-01-29T10:17:27.562Z,10.40
2018-01-29T10:19:55.019Z,10.50
2018-01-29T10:22:22.473Z,10.50
2018-01-29T10:24:49.967Z,10.60
2018-01-29T10:27:17.414Z,10.60
2018-01-29T10:29:44.869Z,10.60
2018-01-29T10:32:12.331Z,10.60
2018-01-29T10:34:39.777Z,10.60
2018-01-29T10:37:07.246Z,10.60
2018-01-29T10:39:34.688Z,10.60
2018-01-29T10:42:02.162Z,10.60
2018-01-29T10:44:29.609Z,10.60
2018-01-29T10:46:57.157Z,10.70
2018-01-29T10:49:24.669Z,10.70
2018-01-29T10:51:52.119Z,10.80
2018-01-29T10:54:19.568Z,10.80
2018-01-29T10:56:47.032Z,10.80
2018-01-29T10:59:14.534Z,10.80
2018-01-29T11:01:47.557Z,10.80
2018-01-29T11:04:15.783Z,10.90
2018-01-29T11:06:43.234Z,10.90
2018-01-29T11:09:10.789Z,10.90
2018-01-29T11:11:38.258Z,11.00
2018-01-29T11:14:05.705Z,11.00
2018-01-29T11:16:33.175Z,11.00
2018-01-29T11:19:00.620Z,11.00
2018-01-29T11:21:28.168Z,11.00
2018-01-29T11:23:55.605Z,11.00
2018-01-29T11:26:23.078Z,11.00
2018-01-29T11:28:50.541Z,11.00
2018-01-29T11:31:17.999Z,11.10
2018-01-29T11:33:45.453Z,11.10
2018-01-29T11:36:12.905Z,11.10
2018-01-29T11:38:40.406Z,11.10
2018-01-29T11:41:07.853Z,11.10
2018-01-29T11:43:35.313Z,11.20
2018-01-29T11:46:02.765Z,11.20
2018-01-29T11:48:30.225Z,11.20
2018-01-29T11:50:57.803Z,11.30
2018-01-29T11:53:25.249Z,11.30
2018-01-29T11:55:52.701Z,11.30
2018-01-29T11:58:20.161Z,11.40
2018-01-29T12:00:47.608Z,11.40
2018-01-29T12:03:15.237Z,11.50
2018-01-29T12:05:42.692Z,11.50
2018-01-29T12:08:10.155Z,11.50
2018-01-29T12:10:37.611Z,11.50
2018-01-29T12:13:05.061Z,11.50
2018-01-29T12:15:32.559Z,11.50
2018-01-29T12:18:00.029Z,11.50
2018-01-29T12:20:27.477Z,11.60
2018-01-29T12:22:54.938Z,11.50
2018-01-29T12:25:22.389Z,11.50
2018-01-29T12:27:49.845Z,11.50
2018-01-29T12:30:17.292Z,11.50
2018-01-29T12:32:44.756Z,11.60
2018-01-29T12:35:12.202Z,11.60
2018-01-29T12:37:39.648Z,11.60
2018-01-29T12:40:07.109Z,11.60
2018-01-29T12:42:34.561Z,11.60
2018-01-29T12:45:02.018Z,11.60
2018-01-29T12:47:29.485Z,11.60
2018-01-29T12:49:57.713Z,11.60
2018-01-29T12:52:25.165Z,11.60
2018-01-29T12:54:52.625Z,11.70
2018-01-29T12:57:20.137Z,11.70
2018-01-29T12:59:47.597Z,11.70
2018-01-29T13:02:15.054Z,11.70
2018-01-29T13:04:42.504Z,11.80
2018-01-29T13:07:09.962Z,11.80
2018-01-29T13:09:37.417Z,11.80
2018-01-29T13:12:04.877Z,11.80
2018-01-29T13:14:32.328Z,11.90
2018-01-29T13:16:59.781Z,11.90
2018-01-29T13:19:27.238Z,11.90
2018-01-29T13:21:54.717Z,11.80
2018-01-29T13:24:22.182Z,11.90
2018-01-29T13:26:50.399Z,11.80
2018-01-29T13:29:17.861Z,11.80
2018-01-29T13:31:45.310Z,11.70
2018-01-29T13:34:12.769Z,11.70
2018-01-29T13:36:40.222Z,11.60
2018-01-29T13:39:07.674Z,11.60
2018-01-29T13:41:35.130Z,11.60
2018-01-29T13:44:02.582Z,11.60
2018-01-29T13:46:30.142Z,11.60
2018-01-29T13:48:57.593Z,11.50
2018-01-29T13:51:25.050Z,11.40
2018-01-29T13:53:52.500Z,11.30
2018-01-29T13:56:19.953Z,11.20
2018-01-29T13:58:47.404Z,11.20
2018-01-29T14:01:15.626Z,11.10
2018-01-29T14:03:43.069Z,11.10
2018-01-29T14:06:10.527Z,11.10
2018-01-29T14:08:37.972Z,11.10
2018-01-29T14:11:05.492Z,11.10
2018-01-29T14:13:33.710Z,11.00
2018-01-29T14:16:01.170Z,11.00
2018-01-29T14:18:28.618Z,11.00
2018-01-29T14:20:56.081Z,10.90
2018-01-29T14:23:23.573Z,10.90
2018-01-29T14:25:51.026Z,10.90
2018-01-29T14:28:18.473Z,10.90
2018-01-29T14:30:45.937Z,10.90
2018-01-29T14:33:13.386Z,10.90
2018-01-29T14:35:41.011Z,10.80
2018-01-29T14:38:08.421Z,10.80
2018-01-29T14:40:35.895Z,10.80
2018-01-29T14:43:04.113Z,10.90
2018-01-29T14:45:31.565Z,10.80
2018-01-29T14:47:59.141Z,10.80
2018-01-29T14:50:26.593Z,10.80
2018-01-29T14:52:54.058Z,10.80
2018-01-29T14:55:21.501Z,10.80
2018-01-29T14:57:48.957Z,10.80
2018-01-29T15:00:16.413Z,10.80
2018-01-29T15:02:43.892Z,10.70
2018-01-29T15:05:11.333Z,10.60
2018-01-29T15:07:38.803Z,10.60
2018-01-29T15:10:06.255Z,10.60
2018-01-29T15:12:33.712Z,10.50
2018-01-29T15:15:01.246Z,10.50
2018-01-29T15:17:28.698Z,10.40
2018-01-29T15:19:56.149Z,10.50
2018-01-29T15:22:23.602Z,10.40
2018-01-29T15:24:51.059Z,10.40
2018-01-29T15:27:18.517Z,10.40
2018-01-29T15:29:45.965Z,10.50
2018-01-29T15:32:13.415Z,10.40
2018-01-29T15:34:41.638Z,10.50
2018-01-29T15:37:09.148Z,10.50
2018-01-29T15:39:37.357Z,10.40
2018-01-29T15:42:04.805Z,10.40
2018-01-29T15:44:32.261Z,10.40
2018-01-29T15:46:59.717Z,10.40
2018-01-29T15:49:27.285Z,10.40
2018-01-29T15:51:54.742Z,10.40
2018-01-29T15:54:22.201Z,10.40
2018-01-29T15:56:49.654Z,10.40
2018-01-29T15:59:17.135Z,10.40
2018-01-29T16:01:44.800Z,10.40
2018-01-29T16:04:12.206Z,10.40
2018-01-29T16:06:39.658Z,10.30
2018-01-29T16:09:07.114Z,10.30
2018-01-29T16:11:34.561Z,10.30
2018-01-29T16:14:02.902Z,10.30
2018-01-29T16:16:30.357Z,10.20
2018-01-29T16:18:57.817Z,10.20
2018-01-29T16:21:25.269Z,10.20
2018-01-29T16:23:52.729Z,10.20
2018-01-29T16:26:20.244Z,10.20
2018-01-29T16:28:47.696Z,10.10
2018-01-29T16:31:15.150Z,10.10
2018-01-29T16:33:42.608Z,10.10
2018-01-29T16:36:10.053Z,10.10
2018-01-29T16:38:37.731Z,10.10
2018-01-29T16:41:05.169Z,10.10
2018-01-29T16:43:33.409Z,10.10
2018-01-29T16:46:00.871Z,10.00
2018-01-29T16:48:28.317Z,10.00
2018-01-29T16:50:55.840Z,10.00
2018-01-29T16:53:23.281Z,10.00
2018-01-29T16:55:50.739Z,10.00
2018-01-29T16:58:18.185Z,10.00
2018-01-29T17:00:46.405Z,10.00
2018-01-29T17:03:13.886Z,10.00
2018-01-29T17:05:41.346Z,10.00
2018-01-29T17:08:08.797Z,10.00
2018-01-29T17:10:36.343Z,10.00
2018-01-29T17:13:04.769Z,10.00
2018-01-29T17:15:32.992Z,10.00
2018-01-29T17:18:00.445Z,10.00
2018-01-29T17:20:27.901Z,10.00
2018-01-29T17:22:55.399Z,10.00
2018-01-29T17:25:23.032Z,10.00
2018-01-29T17:27:50.511Z,10.00
2018-01-29T17:30:17.962Z,10.00
2018-01-29T17:32:45.414Z,10.00
2018-01-29T17:35:12.873Z,10.00
2018-01-29T17:37:40.325Z,10.00
2018-01-29T17:40:07.829Z,10.00
2018-01-29T17:42:35.289Z,10.00
2018-01-29T17:45:02.745Z,10.00
2018-01-29T17:47:30.189Z,9.90
2018-01-29T17:49:57.694Z,10.00
2018-01-29T17:52:25.133Z,10.00
2018-01-29T17:54:52.593Z,9.90
2018-01-29T17:57:20.048Z,10.00
2018-01-29T17:59:47.538Z,9.90
2018-01-29T18:02:14.972Z,9.90
2018-01-29T18:04:42.433Z,9.90
2018-01-29T18:07:09.885Z,9.90
2018-01-29T18:09:37.392Z,9.90
2018-01-29T18:12:05.609Z,10.00
2018-01-29T18:14:33.058Z,10.00
2018-01-29T18:17:00.663Z,10.00
2018-01-29T18:19:28.122Z,10.00
2018-01-29T18:21:55.582Z,10.00
2018-01-29T18:24:23.822Z,10.00
2018-01-29T18:26:51.280Z,10.00
2018-01-29T18:29:18.742Z,10.00
2018-01-29T18:31:46.242Z,10.00
2018-01-29T18:34:14.473Z,10.00
2018-01-29T18:36:42.076Z,10.00
2018-01-29T18:39:10.296Z,10.00
2018-01-29T18:41:37.791Z,10.00
2018-01-29T18:44:05.281Z,10.00
2018-01-29T18:46:32.728Z,10.00
2018-01-29T18:49:00.942Z,10.00
2018-01-29T18:51:28.448Z,10.00
2018-01-29T18:53:55.880Z,10.00
2018-01-29T18:56:23.342Z,10.00
2018-01-29T18:58:50.785Z,10.00
2018-01-29T19:01:18.353Z,10.10
2018-01-29T19:03:45.831Z,10.10
2018-01-29T19:06:13.343Z,10.10
2018-01-29T19:08:40.800Z,10.10
2018-01-29T19:11:08.256Z,10.10
2018-01-29T19:13:35.788Z,10.10
2018-01-29T19:16:03.285Z,10.10
2018-01-29T19:18:30.731Z,10.10
2018-01-29T19:20:58.240Z,10.10
2018-01-29T19:23:26.448Z,10.10
2018-01-29T19:25:53.999Z,10.10
2018-01-29T19:28:21.454Z,10.10
2018-01-29T19:30:48.900Z,10.10
2018-01-29T19:33:16.412Z,10.10
2018-01-29T19:35:43.946Z,10.10
2018-01-29T19:38:11.509Z,10.10
2018-01-29T19:40:39.000Z,10.20
2018-01-29T19:43:06.505Z,10.20
2018-01-29T19:45:33.944Z,10.10
2018-01-29T19:48:01.457Z,10.10
2018-01-29T19:50:29.076Z,10.10
2018-01-29T19:52:56.562Z,10.10
2018-01-29T19:55:24.773Z,10.10
2018-01-29T19:57:53.065Z,10.10
2018-01-29T20:00:21.317Z,10.10
2018-01-29T20:02:49.595Z,10.10
2018-01-29T20:05:17.032Z,10.00
2018-01-29T20:07:44.546Z,10.10
2018-01-29T20:10:12.022Z,10.10
2018-01-29T20:12:39.474Z,10.10
2018-01-29T20:15:07.005Z,10.10
2018-01-29T20:17:35.256Z,10.00
2018-01-29T20:20:02.750Z,10.00
2018-01-29T20:22:30.225Z,10.00
2018-01-29T20:24:57.729Z,9.90
2018-01-29T20:27:25.211Z,9.90
2018-01-29T20:29:53.518Z,9.90
2018-01-29T20:32:20.995Z,9.80
2018-01-29T20:34:48.488Z,9.80
2018-01-29T20:37:16.738Z,9.70
2018-01-29T20:39:44.182Z,9.70
2018-01-29T20:42:11.768Z,9.70
2018-01-29T20:44:40.031Z,9.70
2018-01-29T20:47:07.520Z,9.70
2018-01-29T20:49:35.903Z,9.70
2018-01-29T20:52:04.153Z,9.70
2018-01-29T20:54:31.679Z,9.70
2018-01-29T20:56:59.165Z,9.70
2018-01-29T20:59:26.608Z,9.70
2018-01-29T21:01:54.201Z,9.70
2018-01-29T21:04:22.434Z,9.70
2018-01-29T21:06:49.934Z,9.70
2018-01-29T21:09:18.288Z,9.70
2018-01-29T21:11:45.725Z,9.70
2018-01-29T21:14:13.362Z,9.70
2018-01-29T21:16:40.797Z,9.70
2018-01-29T21:19:08.301Z,9.70
2018-01-29T21:21:35.785Z,9.70
2018-01-29T21:24:03.271Z,9.70
2018-01-29T21:26:31.487Z,9.70
2018-01-29T21:28:58.953Z,9.70
2018-01-29T21:31:26.400Z,9.70
2018-01-29T21:33:53.964Z,9.80
2018-01-29T21:36:21.455Z,9.80
2018-01-29T21:38:49.716Z,9.80
2018-01-29T21:41:17.173Z,9.80
2018-01-29T21:43:44.664Z,9.80
2018-01-29T21:46:12.928Z,9.80
2018-01-29T21:48:41.133Z,9.80
2018-01-29T21:51:08.638Z,9.80
2018-01-29T21:53:36.120Z,9.80
2018-01-29T21:56:03.576Z,9.80
2018-01-29T21:58:31.029Z,9.80
2018-01-29T22:00:59.245Z,9.80
2018-01-29T22:03:26.690Z,9.80
2018-01-29T22:05:54.157Z,9.80
2018-01-29T22:08:21.689Z,9.90
2018-01-29T22:10:49.106Z,9.90
2018-01-29T22:13:16.561Z,9.80
2018-01-29T22:15:44.027Z,9.80
2018-01-29T22:18:11.468Z,9.80
2018-01-29T22:20:38.929Z,9.80
2018-01-29T22:23:06.454Z,9.70
2018-01-29T22:25:33.901Z,9.80
2018-01-29T22:28:01.353Z,9.80
2018-01-29T22:30:28.850Z,9.70
2018-01-29T22:32:56.289Z,9.70
2018-01-29T22:35:23.745Z,9.70
2018-01-29T22:37:51.202Z,9.70
2018-01-29T22:40:18.695Z,9.70
2018-01-29T22:42:46.187Z,9.60
2018-01-29T22:45:13.683Z,9.60
2018-01-29T22:47:41.221Z,9.70
2018-01-29T22:50:08.711Z,9.60
2018-01-29T22:52:36.185Z,9.60
2018-01-29T22:55:04.413Z,9.60
2018-01-29T22:57:34.195Z,9.60
2018-01-29T23:00:01.724Z,9.60
2018-01-29T23:02:29.196Z,9.60
2018-01-29T23:04:57.439Z,9.60
2018-01-29T23:07:24.885Z,9.60
2018-01-29T23:09:52.380Z,9.60
2018-01-29T23:12:19.869Z,9.60
2018-01-29T23:14:47.495Z,9.60
2018-01-29T23:17:14.937Z,9.60
2018-01-29T23:19:42.414Z,9.60
2018-01-29T23:22:10.680Z,9.60
2018-01-29T23:24:38.117Z,9.60
2018-01-29T23:27:05.653Z,9.60
2018-01-29T23:29:33.105Z,9.60
2018-01-29T23:32:00.561Z,9.60
2018-01-29T23:34:28.010Z,9.60
2018-01-29T23:36:55.461Z,9.60
2018-01-29T23:39:22.988Z,9.60
2018-01-29T23:41:51.192Z,9.50
2018-01-29T23:44:18.632Z,9.50
2018-01-29T23:46:46.090Z,9.50
2018-01-29T23:49:13.541Z,9.50
2018-01-29T23:51:41.085Z,9.50
2018-01-29T23:54:09.305Z,9.50
2018-01-29T23:56:36.754Z,9.50
2018-01-29T23:59:04.218Z,9.40
